Flight Track Log - Related Links

Times and Time Zones

All times are in EDT time to prevent confusion due to time zone crossing. See the AAL993 flight status page for this flight to view local times or setup timezone preferences in your user account.

Time Position Orientation Groundspeed Altitude Reporting Facility
EDT Latitude Longitude Course Direction KTS MPH feet Rate Location/Type
Thu 02:59:00 PM 38.6118 -77.5159 190° South  Level FlightAware Approximate
Thu 03:00:00 PM 38.5017 -77.5368 185° South  Level FlightAware Approximate
Thu 03:00:20 PM 38.8130 -77.6840 185° South 287 330 6,700  Level FlightAware ADS-B
Thu 03:00:48 PM 38.7750 -77.6830 179° South 286 329 7,000 526 Climbing FlightAware ADS-B
Thu 03:01:17 PM 38.7390 -77.6810 178° South 282 325 7,200 1,071 Climbing FlightAware ADS-B
Thu 03:01:44 PM 38.7020 -77.6750 173° South 293 337 8,000 2,353 Climbing FlightAware ADS-B
Thu 03:02:08 PM 38.6690 -77.6700 173° South 290 334 9,200 2,486 Climbing FlightAware ADS-B
Thu 03:02:54 PM 38.6070 -77.6540 169° South 311 358 10,900 1,784 Climbing FlightAware ADS-B
Thu 03:03:22 PM 38.5680 -77.6740 202° Southwest 332 382 11,400 1,286 Climbing FlightAware ADS-B
Thu 03:04:04 PM 38.5130 -77.7230 215° Southwest 368 423 12,400 1,725 Climbing FlightAware ADS-B
Thu 03:04:42 PM 38.4580 -77.7700 214° Southwest 385 443 13,700 2,368 Climbing FlightAware ADS-B
Thu 03:05:20 PM 38.3990 -77.8160 211° Southwest 392 451 15,400 2,707 Climbing FlightAware ADS-B
Thu 03:06:04 PM 38.3230 -77.8480 198° South 396 456 17,400 2,667 Climbing FlightAware ADS-B
Thu 03:06:32 PM 38.2740 -77.8690 199° South 399 459 18,600 1,500 Climbing FlightAware ADS-B
Thu 03:07:08 PM 38.2100 -77.8970 199° South 401 461 19,000 316 Climbing FlightAware ADS-B
Thu 03:07:48 PM 38.1390 -77.9280 199° South 400 460 19,000 439 Level FlightAware ADS-B
Thu 03:08:30 PM 38.0650 -77.9590 198° South 404 465 19,600 1,537 Climbing FlightAware ADS-B
Thu 03:09:10 PM 37.9960 -77.9890 199° South 406 467 21,100 1,714 Climbing FlightAware ADS-B
Thu 03:09:54 PM 37.9150 -78.0240 199° South 419 482 22,000 1,357 Climbing FlightAware ADS-B
Thu 03:10:34 PM 37.8440 -78.0560 200° South 419 482 23,000 1,286 Climbing FlightAware ADS-B
Thu 03:11:32 PM 37.7930 -78.0920 209° Southwest 422 486 24,100 1,560 Climbing FlightAware ADS-B
Thu 03:12:14 PM 37.6890 -78.2070 221° Southwest 432 497 25,600 1,814 Climbing FlightAware ADS-B
Thu 03:12:58 PM 37.6220 -78.2830 222° Southwest 436 502 26,700 2,385 Climbing FlightAware ADS-B
Thu 03:13:32 PM 37.5730 -78.3370 221° Southwest 411 473 28,700 2,780 Climbing FlightAware ADS-B
Thu 03:14:20 PM 37.5070 -78.4090 221° Southwest 396 456 30,500 1,630 Climbing FlightAware ADS-B
Thu 03:15:04 PM 37.4450 -78.4780 221° Southwest 408 470 31,200 1,024 Climbing FlightAware ADS-B
Thu 03:15:42 PM 37.3910 -78.5360 220° Southwest 413 475 31,900 1,071 Climbing FlightAware ADS-B
Thu 03:16:28 PM 37.3250 -78.6090 221° Southwest 418 481 32,700 977 Climbing FlightAware ADS-B
Thu 03:17:08 PM 37.2650 -78.6740 221° Southwest 423 487 33,300 1,071 Climbing FlightAware ADS-B
Thu 03:17:52 PM 37.1980 -78.7450 220° Southwest 423 487 34,200 1,143 Climbing FlightAware ADS-B
Thu 03:18:32 PM 37.1320 -78.7970 212° Southwest 426 490 34,900 711 Climbing FlightAware ADS-B
Thu 03:19:08 PM 37.0710 -78.8400 209° Southwest 429 494 35,100 329 Climbing FlightAware ADS-B
Thu 03:19:45 PM 37.0130 -78.8810 209° Southwest 428 493 35,300 141 Climbing FlightAware ADS-B
Thu 03:20:33 PM 36.9430 -78.9300 209° Southwest 428 493 35,300 951 Level FlightAware ADS-B
Thu 03:21:07 PM 36.8710 -78.9840 211° Southwest 37,300 1,345 Climbing FlightAware ADS-B
Thu 03:21:47 PM 36.8070 -79.0300 210° Southwest 37,800 439 Climbing FlightAware ADS-B
Thu 03:22:29 PM 36.7400 -79.0760 209° Southwest 424 488 37,900 77 Climbing FlightAware ADS-B
Thu 03:23:05 PM 36.6880 -79.1130 210° Southwest 424 488 37,900  Level FlightAware ADS-B
Thu 03:23:51 PM 36.6210 -79.1590 209° Southwest 424 488 37,900 64 Level FlightAware ADS-B
Thu 03:24:39 PM 36.5140 -79.2380 211° Southwest 429 494 38,000 72 Climbing FlightAware ADS-B
Thu 03:25:14 PM 36.4550 -79.2810 210° Southwest 429 494 38,000  Level FlightAware ADS-B
Thu 03:26:09 PM 36.3670 -79.3440 210° Southwest 429 494 38,000  Level FlightAware ADS-B
Thu 03:26:45 PM 36.2950 -79.3930 209° Southwest 429 494 38,000  Level FlightAware ADS-B
Thu 03:27:33 PM 36.2240 -79.4420 209° Southwest 429 494 38,000  Level FlightAware ADS-B
Thu 03:28:09 PM 36.3660 -79.3440 29° Northeast 430 495 38,000  Level FlightAware ADS-B
Thu 03:28:45 PM 36.0890 -79.5390 210° Southwest 433 498 38,000  Level FlightAware ADS-B
Thu 03:29:26 PM 36.0200 -79.5870 209° Southwest 434 499 38,000  Level FlightAware ADS-B
Thu 03:30:06 PM 35.9610 -79.6290 210° Southwest 434 499 38,000  Level FlightAware ADS-B
Thu 03:30:42 PM 35.9070 -79.6670 210° Southwest 434 499 38,000  Level FlightAware ADS-B
Thu 03:31:30 PM 35.7980 -79.7410 209° Southwest 437 503 38,000  Level FlightAware ADS-B
Thu 03:32:06 PM 35.7440 -79.7780 209° Southwest 437 503 38,000  Level FlightAware ADS-B
Thu 03:32:26 PM 35.6720 -79.7640 171° South 443 510 38,000  Level FlightAware ADS-B
Thu 03:33:06 PM 35.5910 -79.7860 192° South 443 510 38,000  Level FlightAware ADS-B
Thu 03:33:46 PM 35.5110 -79.8080 193° South 443 510 38,000  Level FlightAware ADS-B
Thu 03:34:32 PM 35.4200 -79.8330 193° South 444 511 38,000  Level FlightAware ADS-B
Thu 03:35:29 PM 35.3160 -79.8610 192° South 445 512 38,000  Level FlightAware ADS-B
Thu 03:36:08 PM 35.2260 -79.8860 193° South 446 513 38,000  Level FlightAware ADS-B
Thu 03:36:50 PM 35.1410 -79.9100 193° South 445 512 38,000  Level FlightAware ADS-B
Thu 03:37:32 PM 35.0580 -79.9350 194° South 448 516 38,000  Level FlightAware ADS-B
Thu 03:38:12 PM 34.9750 -79.9600 194° South 450 518 38,000  Level FlightAware ADS-B
Thu 03:38:58 PM 34.8850 -79.9920 196° South 448 516 38,000  Level FlightAware ADS-B
Thu 03:39:38 PM 34.8050 -80.0200 196° South 449 517 38,000  Level FlightAware ADS-B
Thu 03:40:18 PM 34.7260 -80.0480 196° South 452 520 38,000  Level FlightAware ADS-B
Thu 03:41:04 PM 34.6320 -80.0800 196° South 456 525 38,000  Level FlightAware ADS-B
Thu 03:41:44 PM 34.5490 -80.1080 196° South 458 527 38,000  Level FlightAware ADS-B
Thu 03:42:18 PM 34.4810 -80.1320 196° South 458 527 38,000  Level FlightAware ADS-B
Thu 03:42:56 PM 34.4030 -80.1580 195° South 459 528 38,000  Level FlightAware ADS-B
Thu 03:43:44 PM 34.3040 -80.1920 196° South 462 532 38,000  Level FlightAware ADS-B
Thu 03:44:26 PM 34.2170 -80.2220 196° South 465 535 38,000  Level FlightAware ADS-B
Thu 03:45:06 PM 34.1350 -80.2500 196° South 467 537 38,000  Level FlightAware ADS-B
Thu 03:46:04 PM 34.0140 -80.2910 196° South 468 539 38,000  Level FlightAware ADS-B
Thu 03:46:44 PM 33.9310 -80.3190 196° South 468 539 38,000  Level FlightAware ADS-B
Thu 03:47:20 PM 33.8550 -80.3450 196° South 468 539 38,000  Level FlightAware ADS-B
Thu 03:47:58 PM 33.7770 -80.3710 195° South 468 539 38,000  Level FlightAware ADS-B
Thu 03:48:39 PM 33.6920 -80.4000 196° South 468 539 38,000  Level FlightAware ADS-B
Thu 03:49:19 PM 33.6090 -80.4280 196° South 468 539 38,000  Level FlightAware ADS-B
Thu 03:49:59 PM 33.5240 -80.4560 195° South 468 539 38,000  Level FlightAware ADS-B
Thu 03:50:39 PM 33.4410 -80.4840 196° South 467 537 38,000  Level FlightAware ADS-B
Thu 03:51:24 PM 33.3470 -80.5160 196° South 467 537 38,000  Level FlightAware ADS-B
Thu 03:52:04 PM 33.2660 -80.5430 196° South 468 539 38,000  Level FlightAware ADS-B
Thu 03:53:03 PM 33.1450 -80.5830 195° South 467 537 38,000  Level FlightAware ADS-B
Thu 03:53:43 PM 33.0610 -80.6100 195° South 466 536 38,000  Level FlightAware ADS-B
Thu 03:54:29 PM 32.9620 -80.6430 196° South 470 541 38,000  Level FlightAware ADS-B
Thu 03:55:04 PM 32.8950 -80.6570 190° South 474 545 38,000  Level FlightAware ADS-B
Thu 03:55:49 PM 32.7960 -80.6700 186° South 474 545 38,000  Level FlightAware ADS-B
Thu 03:56:34 PM 32.6900 -80.6840 186° South 474 545 38,000  Level FlightAware ADS-B
Thu 03:57:14 PM 32.6050 -80.6950 186° South 478 550 38,000  Level FlightAware ADS-B
Thu 03:58:09 PM 32.4900 -80.7100 186° South 480 552 38,000  Level FlightAware ADS-B
Thu 03:58:53 PM 32.3900 -80.7230 186° South 481 554 38,000  Level FlightAware ADS-B
Thu 03:59:30 PM 32.3140 -80.7330 186° South 482 555 38,000  Level FlightAware ADS-B
Thu 04:00:33 PM 32.1670 -80.7520 186° South 484 557 38,000  Level FlightAware ADS-B
Thu 04:01:08 PM 32.0860 -80.7620 186° South 484 557 38,000  Level FlightAware ADS-B
Thu 04:01:48 PM 31.9970 -80.7740 187° South 483 556 38,000  Level FlightAware ADS-B
Thu 04:02:28 PM 31.9130 -80.7850 186° South 482 555 38,000  Level FlightAware ADS-B
Thu 04:03:08 PM 31.8210 -80.7960 186° South 482 555 38,000  Level FlightAware ADS-B
Thu 04:04:03 PM 31.7740 -80.8020 186° South 482 555 38,000  Level FlightAware ADS-B
Thu 04:04:39 PM 31.7060 -80.8110 186° South 482 555 38,000  Level FlightAware ADS-B
Thu 04:05:28 PM 31.6140 -80.8220 186° South 482 555 38,000  Level FlightAware ADS-B
Thu 04:06:04 PM 31.5460 -80.8300 186° South 482 555 38,000  Level FlightAware ADS-B
Thu 04:06:52 PM 31.4560 -80.8420 186° South 482 555 38,000  Level FlightAware ADS-B
Thu 04:07:28 PM 31.3880 -80.8500 186° South 482 555 38,000  Level FlightAware ADS-B
Thu 04:08:16 PM 31.2970 -80.8610 186° South 482 555 38,000  Level FlightAware ADS-B
Thu 04:08:52 PM 31.2290 -80.8690 186° South 482 555 38,000  Level FlightAware ADS-B
Thu 04:09:41 PM 31.1370 -80.8810 186° South 482 555 38,000  Level FlightAware ADS-B
Thu 04:10:17 PM 31.0690 -80.8890 186° South 482 555 38,000  Level FlightAware ADS-B
Thu 04:11:40 PM 30.9130 -80.9080 186° South 482 555 38,000  Level FlightAware ADS-B
Thu 04:14:07 PM 30.3640 -80.9200 181° South 480 552 38,000  Level FlightAware ADS-B
Thu 04:14:51 PM 30.2600 -80.9140 177° South 479 551 38,000  Level FlightAware ADS-B
Thu 04:15:31 PM 30.1700 -80.9080 177° South 478 550 38,000  Level FlightAware ADS-B
Thu 04:16:13 PM 30.0820 -80.9030 177° South 477 549 38,000  Level FlightAware ADS-B
Thu 04:17:16 PM 30.0160 -80.8990 177° South 476 548 38,000  Level FlightAware ADS-B
Thu 04:18:17 PM 29.9020 -80.8920 177° South 476 548 38,000  Level FlightAware ADS-B
Thu 04:18:53 PM 29.8350 -80.8880 177° South 476 548 38,000  Level FlightAware ADS-B
Thu 04:19:41 PM 29.7450 -80.8830 177° South 476 548 38,000  Level FlightAware ADS-B
Thu 04:20:17 PM 29.6780 -80.8790 177° South 476 548 38,000  Level FlightAware ADS-B
Thu 04:21:05 PM 29.5880 -80.8730 177° South 476 548 38,000  Level FlightAware ADS-B
Thu 04:21:48 PM 29.3460 -80.8580 177° South 468 539 38,000  Level FlightAware ADS-B
Thu 04:22:18 PM 29.2790 -80.8540 177° South 469 540 38,000  Level FlightAware ADS-B
Thu 04:23:03 PM 29.1810 -80.8480 177° South 469 540 38,000  Level FlightAware ADS-B
Thu 04:23:43 PM 29.0860 -80.8430 177° South 470 541 38,000  Level FlightAware ADS-B
Thu 04:24:18 PM 29.0090 -80.8380 177° South 469 540 38,000  Level FlightAware ADS-B
Thu 04:24:59 PM 28.9190 -80.8320 177° South 467 537 38,000  Level FlightAware ADS-B
Thu 04:25:44 PM 28.8190 -80.8240 176° South 471 542 38,000  Level FlightAware ADS-B
Thu 04:26:19 PM 28.7470 -80.7980 162° South 461 531 38,000  Level FlightAware ADS-B
Thu 04:26:59 PM 28.6630 -80.7670 162° South 460 529 38,000  Level FlightAware ADS-B
Thu 04:27:44 PM 28.5720 -80.7320 161° South 463 533 38,000  Level FlightAware ADS-B
Thu 04:28:20 PM 28.5010 -80.7040 161° South 460 529 38,000  Level FlightAware ADS-B
Thu 04:29:00 PM 28.4320 -80.6600 151° Southeast 448 516 38,000  Level FlightAware ADS-B
Thu 04:29:40 PM 28.3670 -80.5940 138° Southeast 441 507 38,000  Level FlightAware ADS-B
Thu 04:30:25 PM 28.2960 -80.5240 139° Southeast 448 516 38,000  Level FlightAware ADS-B
Thu 04:31:00 PM 28.2410 -80.4710 140° Southeast 449 517 38,000  Level FlightAware ADS-B
Thu 04:31:45 PM 28.1760 -80.4060 139° Southeast 449 517 38,000  Level FlightAware ADS-B
Thu 04:32:30 PM 28.1000 -80.3310 139° Southeast 452 520 38,000  Level FlightAware ADS-B
Thu 04:33:07 PM 28.0490 -80.2800 139° Southeast 452 520 38,000  Level FlightAware ADS-B
Thu 04:33:50 PM 27.9730 -80.2060 139° Southeast 449 517 38,000  Level FlightAware ADS-B
Thu 04:34:30 PM 27.9100 -80.1440 139° Southeast 449 517 38,000  Level FlightAware ADS-B
Thu 04:35:10 PM 27.8460 -80.0820 139° Southeast 451 519 38,000  Level FlightAware ADS-B
Thu 04:35:51 PM 27.7810 -80.0170 138° Southeast 453 521 38,000  Level FlightAware ADS-B
Thu 04:36:21 PM 27.7320 -79.9700 140° Southeast 454 522 38,000  Level FlightAware ADS-B
Thu 04:37:01 PM 27.6680 -79.9080 139° Southeast 455 524 38,000 -1,129 Level FlightAware ADS-B
Thu 04:37:46 PM 27.5940 -79.8360 139° Southeast 454 522 36,400 -2,475 Descending FlightAware ADS-B
Thu 04:38:21 PM 27.5390 -79.7820 139° Southeast 458 527 34,700 -3,120 Descending FlightAware ADS-B
Thu 04:39:01 PM 27.4720 -79.7170 139° Southeast 470 541 32,500 -2,965 Descending FlightAware ADS-B
Thu 04:39:46 PM 27.3970 -79.6480 141° Southeast 467 537 30,500 -2,000 Descending FlightAware ADS-B
Thu 04:40:16 PM 27.3350 -79.6320 167° South 451 519 30,000 -1,029 Descending FlightAware ADS-B
Thu 04:40:56 PM 27.2540 -79.6400 185° South 455 524 29,300 -1,012 Descending FlightAware ADS-B
Thu 04:41:39 PM 27.1590 -79.6490 185° South 455 524 28,600 -1,467 Descending FlightAware ADS-B
Thu 04:42:26 PM 27.0630 -79.6610 186° South 436 502 27,100 -2,071 Descending FlightAware ADS-B
Thu 04:43:03 PM 26.9910 -79.6700 186° South 435 501 25,700 -2,241 Descending FlightAware ADS-B
Thu 04:43:49 PM 26.8990 -79.6800 186° South 423 487 24,000 -2,250 Descending FlightAware ADS-B
Thu 04:44:31 PM 26.8170 -79.6900 186° South 403 464 22,400 -2,154 Descending FlightAware ADS-B
Thu 04:45:07 PM 26.7500 -79.6980 186° South 401 461 21,200 -2,077 Descending FlightAware ADS-B
Thu 04:45:49 PM 26.6740 -79.7070 186° South 391 450 19,700 -2,096 Descending FlightAware ADS-B
Thu 04:46:30 PM 26.6020 -79.7150 186° South 371 427 18,300 -2,026 Descending FlightAware ADS-B
Thu 04:47:06 PM 26.5390 -79.7220 186° South 370 426 17,100 -1,870 Descending FlightAware ADS-B
Thu 04:47:47 PM 26.4730 -79.7380 192° South 346 398 15,900 -1,286 Descending FlightAware ADS-B
Thu 04:48:02 PM 26.4540 -79.7560 220° Southwest 338 389 15,900  Level FlightAware ADS-B
Thu 04:48:43 PM 26.4180 -79.8170 237° Southwest 337 388 15,900  Level FlightAware ADS-B
Thu 04:49:19 PM 26.3860 -79.8700 236° Southwest 339 390 15,900  Level FlightAware ADS-B
Thu 04:49:59 PM 26.3410 -79.9210 225° Southwest 339 390 15,900  Level FlightAware ADS-B
Thu 04:50:40 PM 26.2950 -79.9710 224° Southwest 338 389 15,900  Level FlightAware ADS-B
Thu 04:51:26 PM 26.2360 -80.0180 216° Southwest 334 384 15,900 -585 Level FlightAware ADS-B
Thu 04:52:02 PM 26.1800 -80.0340 194° South 332 382 15,100 -1,735 Descending FlightAware ADS-B
Thu 04:52:49 PM 26.1100 -80.0540 194° South 335 386 13,500 -2,000 Descending FlightAware ADS-B
Thu 04:53:29 PM 26.0490 -80.0710 194° South 330 380 12,200 -1,756 Descending FlightAware ADS-B
Thu 04:54:11 PM 25.9880 -80.0880 194° South 315 362 11,100 -1,345 Descending FlightAware ADS-B
Thu 04:54:27 PM 25.9660 -80.1000 206° Southwest 311 358 10,900 -800 Descending FlightAware ADS-B
Thu 04:54:41 PM 25.9520 -80.1170 228° Southwest 297 342 10,700 -1,200 Descending FlightAware ADS-B
Thu 04:54:52 PM 25.9470 -80.1310 248° West 300 345 10,400 -1,615 Descending FlightAware ADS-B
Thu 04:55:07 PM 25.9440 -80.1550 262° West 298 343 10,000 -1,571 Descending FlightAware ADS-B
Thu 04:55:34 PM 25.9410 -80.1940 265° West 298 343 9,300 -1,684 Descending FlightAware ADS-B
Thu 04:56:04 PM 25.9380 -80.2410 266° West 298 343 8,400 -1,263 Descending FlightAware ADS-B
Thu 04:56:31 PM 25.9360 -80.2800 267° West 287 330 8,100 -692 Descending FlightAware ADS-B
Thu 04:56:56 PM 25.9340 -80.3170 267° West 267 307 7,800 -667 Descending FlightAware ADS-B
Thu 04:57:16 PM 25.9320 -80.3430 265° West 254 292 7,600 -783 Descending FlightAware ADS-B
Thu 04:57:42 PM 25.9310 -80.3760 268° West 235 270 7,200 -1,500 Descending FlightAware ADS-B
Thu 04:58:08 PM 25.9240 -80.4070 256° West 228 262 6,300 -2,077 Descending FlightAware ADS-B
Thu 04:58:34 PM 25.9090 -80.4320 236° Southwest 233 268 5,400 -2,000 Descending FlightAware ADS-B
Thu 04:59:05 PM 25.8910 -80.4620 236° Southwest 225 259 4,400 -2,000 Descending FlightAware ADS-B
Thu 04:59:31 PM 25.8710 -80.4840 225° Southwest 221 254 3,500 -1,833 Descending FlightAware ADS-B
Thu 04:59:41 PM 25.8620 -80.4860 191° South 214 246 3,300 -1,400 Descending FlightAware ADS-B
Thu 05:00:01 PM 25.8410 -80.4790 163° South 213 245 2,800 -1,235 Descending FlightAware ADS-B
Thu 05:00:15 PM 25.8340 -80.4690 128° Southeast 209 241 2,600 -462 Descending FlightAware ADS-B
Thu 05:00:27 PM 25.8310 -80.4540 103° East 196 226 2,600 -188 Level FlightAware ADS-B
Thu 05:00:47 PM 25.8360 -80.4360 73° East 179 206 2,500 -837 Descending FlightAware ADS-B
Thu 05:01:10 PM 25.8420 -80.4160 72° East 177 204 2,000 -913 Descending FlightAware ADS-B
Thu 05:01:33 PM 25.8460 -80.3960 77° East 173 199 1,800 -612 Descending FlightAware ADS-B
Thu 05:01:59 PM 25.8380 -80.3770 115° Southeast 164 189 1,500 -808 Descending FlightAware ADS-B
Thu 05:02:25 PM 25.8280 -80.3590 122° Southeast 155 178 1,100 -828 Descending FlightAware ADS-B
Thu 05:02:57 PM 25.8160 -80.3360 120° Southeast 159 183 700 -857 Descending FlightAware ADS-B
Thu 05:03:21 PM 25.8070 -80.3180 119° Southeast 163 188 300 -1,000 Descending FlightAware ADS-B
Thu 05:03:44 PM 25.7990 -80.3010 118° Southeast 161 185 -783 Descending FlightAware ADS-B
Thu 05:04:01 PM 25.7930 -80.2900 121° Southeast 120 138  Level FlightAware ADS-B
Thu 05:04:23 PM 25.7910 -80.2850 114° Southeast 20 23  Level FlightAware ADS-B
Thu 05:04:51 PM 25.7920 -80.2840 42° Northeast 27 31  Level FlightAware ADS-B

Login

Don't have an account? Register now (free) for customized features, flight alerts, and more!